KRKD/RKD METAR and TAF weather

Enter ICAO airport designator
Station Type Date Time Source
KRKD METAR 2022/12/04 03:56 UTC NOAA

KRKD 040356Z AUTO 30010G16KT 10SM FEW021 BKN029 OVC090 08/04 A2982 RMK AO2 RAE31 SLP097 P0000 T00830044


Station Type Date Time Source
KRKD Decoded METAR 2022/12/04 03:56 UTC NOAA

Rockland, Knox County Regional Airport, ME, United States (KRKD) 44-04N 069-06W
Dec 03, 2022 - 10:56 PM EST / 2022.12.04 0356 UTC
Wind: from the WNW (300 degrees) at 12 MPH (10 KT) gusting to 18 MPH (16 KT):0
Visibility: 10 mile(s):0
Sky conditions: overcast
Precipitation last hour: A trace
Temperature: 46.9 F (8.3 C)
Dew Point: 39.9 F (4.4 C)
Relative Humidity: 76%
Pressure (altimeter): 29.82 in. Hg (1009 hPa)
ob: KRKD 040356Z AUTO 30010G16KT 10SM FEW021 BKN029 OVC090 08/04 A2982 RMK AO2 RAE31 SLP097 P0000 T00830044
cycle: 4

Station Type Date Time Source
KRKD TAF 2022/12/03 18:22 UTC NOAA

TAF KRKD 031720Z 0318/0418 20017G25KT 5SM -RA BR OVC035 WS020/20055KT
FM032000 19017G26KT 2SM -RA BR OVC007
FM040100 27010G18KT P6SM -SHRA BKN040
FM040500 28007KT P6SM SKC

Example: see airport list